Time;durP1;ratioP1;P1;durP2;ratioP2;P2;SDS_P1;SDS_P2;PMS_P1;PMS_P2;Temp;Humidity;BMP_temperature;BMP_pressure;BME280_temperature;BME280_humidity;BME280_pressure;Samples;Min_cycle;Max_cycle;Signal;HPM_P1;HPM_P2
2022/10/20 00:00:56;;;;;;;11.30;6.00;;;7.80;99.90;;;;;;5046101;28;20029;-47
2022/10/20 00:03:23;;;;;;;9.38;5.55;;;7.80;99.90;;;;;;5040979;28;20154;-45
2022/10/20 00:05:49;;;;;;;8.93;5.45;;;7.90;99.90;;;;;;5046013;28;20033;-43
2022/10/20 00:08:15;;;;;;;13.50;6.22;;;7.80;99.90;;;;;;5046686;28;20108;-44
2022/10/20 00:10:41;;;;;;;11.27;6.25;;;7.80;99.90;;;;;;5048449;28;20079;-43
2022/10/20 00:13:06;;;;;;;10.90;5.57;;;7.80;99.90;;;;;;5043028;28;20072;-43
2022/10/20 00:15:32;;;;;;;13.70;5.90;;;7.70;99.90;;;;;;5044183;28;20041;-43
2022/10/20 00:17:58;;;;;;;12.82;6.60;;;7.70;99.90;;;;;;5046180;28;20431;-45
2022/10/20 00:20:24;;;;;;;15.32;6.00;;;7.70;99.90;;;;;;5047614;28;20064;-43
2022/10/20 00:22:49;;;;;;;9.35;5.43;;;7.60;99.90;;;;;;5047927;28;20036;-46
2022/10/20 00:25:15;;;;;;;12.02;5.55;;;7.70;99.90;;;;;;5040948;28;20034;-44
2022/10/20 00:27:41;;;;;;;11.07;5.72;;;7.60;99.90;;;;;;5044510;28;20048;-43
2022/10/20 00:30:07;;;;;;;13.27;5.78;;;7.60;99.90;;;;;;5044499;28;20060;-45
2022/10/20 00:32:32;;;;;;;11.77;5.72;;;7.60;99.90;;;;;;5048007;28;20502;-45
2022/10/20 00:34:58;;;;;;;12.75;5.68;;;7.60;99.90;;;;;;5043508;28;20041;-44
2022/10/20 00:37:24;;;;;;;9.18;5.60;;;7.50;99.90;;;;;;5042267;28;20077;-42
2022/10/20 00:39:49;;;;;;;12.90;5.93;;;7.50;99.90;;;;;;5044783;28;20068;-43
2022/10/20 00:42:17;;;;;;;9.30;5.07;;;7.50;99.90;;;;;;5046829;28;20567;-43
2022/10/20 00:44:58;;;;;;;11.98;5.78;;;7.50;99.90;;;;;;5043982;28;20033;-43
2022/10/20 00:47:37;;;;;;;11.35;5.40;;;7.50;99.90;;;;;;5043584;28;20162;-44
2022/10/20 00:50:26;;;;;;;9.15;5.20;;;7.40;99.90;;;;;;5044195;28;21876;-46
2022/10/20 00:52:54;;;;;;;14.45;5.65;;;7.50;99.90;;;;;;5046704;28;20115;-45
2022/10/20 00:55:31;;;;;;;9.30;5.38;;;7.40;99.90;;;;;;5042426;28;20526;-43
2022/10/20 00:57:59;;;;;;;9.50;5.75;;;7.40;99.90;;;;;;5041299;28;20403;-46
2022/10/20 01:00:25;;;;;;;8.95;5.03;;;7.40;99.90;;;;;;5044899;28;20117;-43
2022/10/20 01:02:53;;;;;;;12.70;5.72;;;7.40;99.90;;;;;;5047498;28;20051;-43
2022/10/20 01:05:19;;;;;;;9.18;5.35;;;7.50;99.90;;;;;;5042329;28;20269;-43
2022/10/20 01:07:45;;;;;;;11.10;5.70;;;7.40;99.90;;;;;;5043704;28;20044;-44
2022/10/20 01:10:12;;;;;;;10.23;5.65;;;7.40;99.90;;;;;;5042800;28;20480;-43
2022/10/20 01:12:45;;;;;;;9.60;5.63;;;7.30;99.90;;;;;;5045756;28;20183;-45
2022/10/20 01:15:33;;;;;;;13.30;5.88;;;7.30;99.90;;;;;;5045402;28;20159;-44
2022/10/20 01:18:24;;;;;;;10.55;4.75;;;7.30;99.90;;;;;;5040061;28;20045;-44
2022/10/20 01:21:37;;;;;;;9.82;5.30;;;7.30;99.90;;;;;;5044346;28;20436;-46
2022/10/20 01:24:24;;;;;;;10.30;5.38;;;7.30;99.90;;;;;;5046900;28;20395;-43
2022/10/20 01:27:07;;;;;;;11.73;4.95;;;7.40;99.90;;;;;;5039695;28;20116;-45
2022/10/20 01:29:40;;;;;;;13.75;5.20;;;7.30;99.90;;;;;;5042627;28;20044;-43
2022/10/20 01:32:36;;;;;;;10.10;5.22;;;7.30;99.90;;;;;;5042941;28;20036;-42
2022/10/20 01:35:22;;;;;;;12.82;5.35;;;7.20;99.90;;;;;;5044793;28;20200;-45
2022/10/20 01:37:52;;;;;;;10.45;5.32;;;7.30;99.90;;;;;;5042426;28;20073;-44
2022/10/20 01:40:33;;;;;;;11.40;5.30;;;7.20;99.90;;;;;;5043958;28;20059;-46
2022/10/20 01:43:03;;;;;;;13.93;5.38;;;7.20;99.90;;;;;;5045887;28;20055;-43
2022/10/20 01:45:33;;;;;;;13.73;5.82;;;7.20;99.90;;;;;;5043859;28;20047;-44
2022/10/20 01:48:03;;;;;;;10.10;5.50;;;7.20;99.90;;;;;;5041261;28;20040;-43
2022/10/20 01:50:29;;;;;;;14.90;5.30;;;7.20;99.90;;;;;;5044707;28;20469;-43
2022/10/20 01:52:59;;;;;;;10.52;5.38;;;7.10;99.90;;;;;;5045771;28;20070;-46
2022/10/20 01:55:25;;;;;;;12.75;5.25;;;7.10;99.90;;;;;;5044994;28;20120;-45
2022/10/20 01:58:06;;;;;;;12.00;5.22;;;7.10;99.90;;;;;;5040673;28;20124;-44
2022/10/20 02:00:35;;;;;;;11.85;5.65;;;7.10;99.90;;;;;;5040908;28;20061;-46
2022/10/20 02:03:19;;;;;;;11.93;5.30;;;7.20;99.90;;;;;;5044326;28;20125;-45
2022/10/20 02:06:20;;;;;;;9.57;5.25;;;7.10;99.90;;;;;;5044652;28;20492;-42
2022/10/20 02:08:49;;;;;;;11.50;6.07;;;7.10;99.90;;;;;;5041050;28;20496;-43
2022/10/20 02:11:43;;;;;;;10.77;5.63;;;7.00;99.90;;;;;;5043055;28;20060;-44
2022/10/20 02:14:12;;;;;;;14.27;5.32;;;7.10;99.90;;;;;;5045431;28;20033;-43
2022/10/20 02:17:00;;;;;;;10.68;5.20;;;7.10;99.90;;;;;;5042451;28;20040;-44
2022/10/20 02:19:31;;;;;;;11.23;5.32;;;7.20;99.90;;;;;;5041923;28;20065;-44
2022/10/20 02:21:57;;;;;;;10.30;5.32;;;7.10;99.90;;;;;;5043172;28;20080;-44
2022/10/20 02:24:26;;;;;;;13.75;5.43;;;7.10;99.90;;;;;;5044708;28;20041;-45
2022/10/20 02:26:54;;;;;;;11.35;5.90;;;7.10;99.90;;;;;;5042653;28;20029;-43
2022/10/20 02:29:26;;;;;;;11.25;5.18;;;7.10;99.90;;;;;;5039668;28;20037;-44
2022/10/20 02:31:52;;;;;;;15.63;5.53;;;7.00;99.90;;;;;;5043811;28;20124;-43
2022/10/20 02:34:17;;;;;;;9.82;5.10;;;7.00;99.90;;;;;;5046427;28;20120;-44
2022/10/20 02:36:44;;;;;;;10.15;4.85;;;6.90;99.90;;;;;;5042432;28;20041;-46
2022/10/20 02:39:10;;;;;;;11.13;6.03;;;7.00;99.90;;;;;;5041247;28;20052;-42
2022/10/20 02:41:36;;;;;;;13.77;5.75;;;6.90;99.90;;;;;;5043044;28;20139;-43
2022/10/20 02:44:02;;;;;;;9.93;4.88;;;6.90;99.90;;;;;;5045839;28;20124;-43
2022/10/20 02:46:27;;;;;;;14.82;5.90;;;7.10;99.90;;;;;;5042267;28;20047;-44
2022/10/20 02:48:53;;;;;;;10.45;5.55;;;6.90;99.90;;;;;;5040678;28;20136;-44
2022/10/20 02:51:19;;;;;;;10.70;5.20;;;6.90;99.90;;;;;;5043279;28;20041;-42
2022/10/20 02:53:45;;;;;;;8.60;5.55;;;6.80;99.90;;;;;;5045713;28;20032;-44
2022/10/20 02:56:11;;;;;;;9.85;5.05;;;6.80;99.90;;;;;;5042012;28;20479;-42
2022/10/20 02:58:36;;;;;;;9.80;5.47;;;6.80;99.90;;;;;;5042062;28;20087;-43
2022/10/20 03:01:03;;;;;;;11.73;5.70;;;7.00;99.90;;;;;;5040306;28;20748;-44
2022/10/20 03:03:28;;;;;;;9.32;5.68;;;6.90;99.90;;;;;;5044262;28;20037;-43
2022/10/20 03:05:54;;;;;;;9.02;5.18;;;6.90;99.90;;;;;;5044838;28;20400;-44
2022/10/20 03:08:20;;;;;;;8.68;5.15;;;7.00;99.90;;;;;;5039849;28;20366;-43
2022/10/20 03:10:46;;;;;;;13.07;5.10;;;6.70;99.90;;;;;;5044409;28;20116;-41
2022/10/20 03:13:13;;;;;;;12.38;6.15;;;6.70;99.90;;;;;;5046471;28;20132;-42
2022/10/20 03:15:39;;;;;;;8.82;5.13;;;6.80;99.90;;;;;;5048963;28;20136;-44
2022/10/20 03:18:04;;;;;;;10.48;5.38;;;6.80;99.90;;;;;;5044786;28;20089;-43
2022/10/20 03:20:30;;;;;;;11.77;5.18;;;6.70;99.90;;;;;;5045113;28;20060;-43
2022/10/20 03:22:56;;;;;;;9.35;5.30;;;6.90;99.90;;;;;;5045507;28;20098;-43
2022/10/20 03:25:22;;;;;;;10.63;5.78;;;6.90;99.90;;;;;;5046579;28;20037;-42
2022/10/20 03:27:47;;;;;;;12.18;5.47;;;6.80;99.90;;;;;;5049698;28;20029;-44
2022/10/20 03:30:13;;;;;;;9.68;5.82;;;6.90;99.90;;;;;;5043477;28;20033;-44
2022/10/20 03:32:38;;;;;;;11.40;6.05;;;6.70;99.90;;;;;;5044939;28;20075;-43
2022/10/20 03:35:04;;;;;;;9.68;5.97;;;6.80;99.90;;;;;;5046226;28;20040;-43
2022/10/20 03:37:30;;;;;;;11.75;6.00;;;6.80;99.90;;;;;;5049003;28;20033;-45
2022/10/20 03:39:56;;;;;;;10.07;5.75;;;6.90;99.90;;;;;;5045137;28;20055;-44
2022/10/20 03:42:21;;;;;;;12.23;5.90;;;6.80;99.90;;;;;;5044554;28;20068;-44
2022/10/20 03:44:47;;;;;;;9.88;5.63;;;6.80;99.90;;;;;;5046101;28;20712;-44
2022/10/20 03:47:13;;;;;;;8.80;5.65;;;6.90;99.90;;;;;;5046793;28;20033;-42
2022/10/20 03:49:39;;;;;;;12.43;5.93;;;7.10;99.90;;;;;;5044370;28;20025;-43
2022/10/20 03:52:05;;;;;;;14.05;5.78;;;6.90;99.90;;;;;;5047382;28;20037;-43
2022/10/20 03:54:31;;;;;;;10.52;5.88;;;6.80;99.90;;;;;;5046665;28;20056;-43
2022/10/20 03:56:56;;;;;;;11.00;6.15;;;7.10;99.90;;;;;;5048422;28;20561;-43
2022/10/20 03:59:22;;;;;;;13.07;6.10;;;7.00;99.90;;;;;;5047846;28;20069;-43
2022/10/20 04:01:48;;;;;;;10.35;5.82;;;7.00;99.90;;;;;;5042315;28;20076;-43
2022/10/20 04:04:14;;;;;;;11.45;6.07;;;7.00;99.90;;;;;;5044999;28;20033;-47
2022/10/20 04:06:40;;;;;;;11.63;5.88;;;7.00;99.90;;;;;;5046452;28;20029;-43
2022/10/20 04:09:05;;;;;;;13.75;6.82;;;6.90;99.90;;;;;;5048531;28;20037;-42
2022/10/20 04:11:31;;;;;;;10.88;6.38;;;6.90;99.90;;;;;;5043042;28;20374;-46
2022/10/20 04:13:57;;;;;;;11.95;5.97;;;6.80;99.90;;;;;;5043408;28;20528;-46
2022/10/20 04:16:23;;;;;;;11.82;6.57;;;7.00;99.90;;;;;;5046025;28;20151;-44
2022/10/20 04:18:51;;;;;;;11.68;7.18;;;7.00;99.90;;;;;;5048281;28;20036;-42
2022/10/20 04:21:16;;;;;;;10.30;6.40;;;6.80;99.90;;;;;;5041867;28;20032;-45
2022/10/20 04:23:42;;;;;;;11.90;6.82;;;6.80;99.90;;;;;;5042733;28;20078;-45
2022/10/20 04:26:13;;;;;;;14.20;6.70;;;7.00;99.90;;;;;;5046807;28;20456;-43
2022/10/20 04:28:39;;;;;;;14.20;6.85;;;6.90;99.90;;;;;;5047917;28;20029;-44
2022/10/20 04:31:05;;;;;;;14.57;7.38;;;6.80;99.90;;;;;;5044097;28;20043;-43
2022/10/20 04:33:31;;;;;;;14.05;6.90;;;6.70;99.90;;;;;;5041660;28;20068;-45
2022/10/20 04:35:59;;;;;;;10.73;6.72;;;6.80;99.90;;;;;;5044098;28;20047;-45
2022/10/20 04:38:25;;;;;;;11.60;7.35;;;6.70;99.90;;;;;;5046067;28;20048;-42
2022/10/20 04:40:55;;;;;;;14.75;7.43;;;6.80;99.90;;;;;;5047192;28;20642;-43
2022/10/20 04:43:21;;;;;;;14.07;7.32;;;6.90;99.90;;;;;;5042279;28;20047;-43
2022/10/20 04:45:46;;;;;;;15.80;7.50;;;6.90;99.90;;;;;;5045573;28;20116;-42
2022/10/20 04:48:12;;;;;;;13.85;7.55;;;6.80;99.90;;;;;;5044721;28;20078;-45
2022/10/20 04:50:37;;;;;;;14.48;7.38;;;6.90;99.90;;;;;;5046933;28;20044;-48
2022/10/20 04:53:03;;;;;;;15.20;7.53;;;6.90;99.90;;;;;;5041328;28;20076;-44
2022/10/20 04:55:29;;;;;;;15.00;8.35;;;6.80;99.90;;;;;;5043675;28;20041;-42
2022/10/20 04:57:54;;;;;;;12.98;7.60;;;6.70;99.90;;;;;;5046686;28;20044;-43
2022/10/20 05:00:20;;;;;;;14.18;7.82;;;6.60;99.90;;;;;;5044103;28;20381;-43
2022/10/20 05:02:45;;;;;;;15.63;8.10;;;6.80;99.90;;;;;;5041741;28;20084;-43
2022/10/20 05:05:11;;;;;;;13.27;8.75;;;6.80;99.90;;;;;;5044179;28;20117;-43
2022/10/20 05:07:37;;;;;;;12.75;7.75;;;6.60;99.90;;;;;;5046087;28;20557;-42
2022/10/20 05:10:03;;;;;;;14.98;9.10;;;6.60;99.90;;;;;;5045195;28;20082;-45
2022/10/20 05:12:28;;;;;;;16.00;8.73;;;6.70;99.90;;;;;;5041710;28;20550;-43
2022/10/20 05:14:54;;;;;;;14.70;9.00;;;6.80;99.90;;;;;;5043490;28;20037;-44
2022/10/20 05:17:20;;;;;;;13.93;8.85;;;6.80;99.90;;;;;;5045258;28;20047;-45
2022/10/20 05:19:45;;;;;;;15.50;8.55;;;6.60;99.90;;;;;;5046262;28;20041;-44
2022/10/20 05:22:11;;;;;;;13.88;10.18;;;6.80;99.90;;;;;;5042982;28;20036;-42
2022/10/20 05:24:37;;;;;;;16.52;10.00;;;6.70;99.90;;;;;;5043093;28;20465;-45
2022/10/20 05:27:02;;;;;;;16.63;10.02;;;6.80;99.90;;;;;;5045169;28;20476;-44
2022/10/20 05:29:28;;;;;;;15.23;9.95;;;6.90;99.90;;;;;;5047251;28;20040;-42
2022/10/20 05:31:54;;;;;;;18.95;10.98;;;6.60;99.90;;;;;;5041035;28;20047;-43
2022/10/20 05:34:19;;;;;;;16.52;10.40;;;6.70;99.90;;;;;;5041600;28;20045;-44
2022/10/20 05:36:45;;;;;;;16.17;10.50;;;6.60;99.90;;;;;;5044743;28;20043;-44
2022/10/20 05:39:11;;;;;;;15.05;10.23;;;6.60;99.90;;;;;;5046243;28;20091;-43
2022/10/20 05:41:37;;;;;;;15.90;10.52;;;6.60;99.90;;;;;;5023006;28;20073;-43
2022/10/20 05:44:05;;;;;;;14.38;10.25;;;6.70;99.90;;;;;;5043649;28;20041;-45
2022/10/20 05:46:33;;;;;;;15.90;10.70;;;6.70;99.90;;;;;;5044905;28;20120;-45
2022/10/20 05:49:01;;;;;;;15.48;10.85;;;6.80;99.90;;;;;;5046543;28;20040;-42
2022/10/20 05:51:30;;;;;;;16.20;10.43;;;6.80;99.90;;;;;;5040014;28;20041;-44
2022/10/20 05:53:56;;;;;;;18.23;11.15;;;6.80;99.90;;;;;;5042454;28;20044;-44
2022/10/20 05:56:23;;;;;;;16.85;10.82;;;6.80;99.90;;;;;;5045431;28;20043;-45
2022/10/20 05:58:49;;;;;;;18.58;11.10;;;6.70;99.90;;;;;;5045607;28;20034;-45
2022/10/20 06:01:17;;;;;;;16.83;11.23;;;6.70;99.90;;;;;;5040154;28;20064;-44
2022/10/20 06:03:57;;;;;;;18.65;11.95;;;6.70;99.90;;;;;;5042066;28;20064;-46
2022/10/20 06:06:26;;;;;;;17.15;11.23;;;6.70;99.90;;;;;;5044757;28;20086;-43
2022/10/20 06:08:52;;;;;;;19.52;12.00;;;6.90;99.90;;;;;;5047059;28;20110;-43
2022/10/20 06:11:19;;;;;;;19.60;11.68;;;6.80;99.90;;;;;;5041750;28;20037;-44
2022/10/20 06:13:45;;;;;;;22.73;12.20;;;6.70;99.90;;;;;;5041453;28;20045;-44
2022/10/20 06:16:16;;;;;;;19.02;12.13;;;6.80;99.90;;;;;;5045080;28;20090;-43
2022/10/20 06:18:42;;;;;;;18.73;11.68;;;6.80;99.90;;;;;;5045962;28;20465;-42
2022/10/20 06:21:17;;;;;;;18.17;12.20;;;7.10;99.90;;;;;;5043725;28;20037;-44
2022/10/20 06:23:43;;;;;;;17.55;11.55;;;6.80;99.90;;;;;;5040916;28;20046;-45
2022/10/20 06:26:16;;;;;;;20.60;12.25;;;6.90;99.90;;;;;;5043679;28;20048;-45
2022/10/20 06:28:42;;;;;;;19.33;12.43;;;6.80;99.90;;;;;;5046127;28;20346;-46
2022/10/20 06:31:26;;;;;;;19.10;12.73;;;6.70;99.90;;;;;;5041167;28;20091;-44
2022/10/20 06:33:52;;;;;;;18.38;12.02;;;6.80;99.90;;;;;;5040968;28;20506;-44
2022/10/20 06:36:19;;;;;;;17.65;12.52;;;6.90;99.90;;;;;;5042597;28;20036;-43
2022/10/20 06:38:46;;;;;;;19.20;12.18;;;6.70;99.90;;;;;;5045856;28;20040;-45
2022/10/20 06:41:15;;;;;;;22.95;12.18;;;6.90;99.90;;;;;;5042767;28;20038;-45
2022/10/20 06:43:41;;;;;;;16.30;11.85;;;6.90;99.90;;;;;;5034338;28;20073;-44
2022/10/20 06:46:10;;;;;;;19.27;12.80;;;6.80;99.90;;;;;;5039822;28;20064;-46
2022/10/20 06:48:36;;;;;;;19.80;13.40;;;7.00;99.90;;;;;;5046342;28;20091;-44
2022/10/20 06:51:13;;;;;;;19.83;12.55;;;6.80;99.90;;;;;;5050608;28;20036;-42
2022/10/20 06:53:41;;;;;;;20.92;13.38;;;6.90;99.90;;;;;;5042257;28;20435;-43
2022/10/20 06:56:10;;;;;;;20.30;13.25;;;7.00;99.90;;;;;;5036760;28;20540;-42
2022/10/20 06:58:37;;;;;;;18.60;12.23;;;6.90;99.90;;;;;;5039699;28;20030;-44
2022/10/20 07:01:08;;;;;;;19.23;12.95;;;6.90;99.90;;;;;;5041405;28;20037;-42
2022/10/20 07:03:35;;;;;;;19.25;12.77;;;7.10;99.90;;;;;;5043462;28;20380;-45
2022/10/20 07:06:03;;;;;;;21.58;13.13;;;7.10;99.90;;;;;;5042012;28;20561;-46
2022/10/20 07:08:30;;;;;;;19.55;12.05;;;6.90;99.90;;;;;;5042428;28;20055;-44
2022/10/20 07:11:27;;;;;;;21.08;13.48;;;6.90;99.90;;;;;;5041896;28;20024;-43
2022/10/20 07:13:52;;;;;;;19.90;12.82;;;6.90;99.90;;;;;;5039541;28;20045;-43
2022/10/20 07:16:21;;;;;;;17.25;12.80;;;7.10;99.90;;;;;;5033390;28;20092;-43
2022/10/20 07:18:47;;;;;;;20.75;14.02;;;7.00;99.90;;;;;;5034982;28;20120;-43
2022/10/20 07:21:15;;;;;;;19.13;12.15;;;7.10;99.90;;;;;;5035780;28;20053;-43
2022/10/20 07:23:41;;;;;;;18.50;13.20;;;7.00;99.90;;;;;;5032456;28;20120;-44
2022/10/20 07:26:07;;;;;;;20.70;13.82;;;7.20;99.90;;;;;;5034709;28;20488;-44
2022/10/20 07:28:34;;;;;;;18.63;12.90;;;7.20;99.90;;;;;;5033902;28;20083;-44
2022/10/20 07:31:09;;;;;;;20.67;12.35;;;7.10;99.90;;;;;;5034516;28;20060;-42
2022/10/20 07:33:35;;;;;;;17.70;12.40;;;7.30;99.90;;;;;;5032270;28;20041;-44
2022/10/20 07:36:01;;;;;;;22.63;14.00;;;7.10;99.90;;;;;;5034504;28;20052;-42
2022/10/20 07:38:26;;;;;;;20.05;13.30;;;7.20;99.90;;;;;;5033101;28;20552;-45
2022/10/20 07:40:52;;;;;;;18.98;13.07;;;7.40;99.90;;;;;;5035282;28;20037;-45
2022/10/20 07:43:18;;;;;;;17.85;12.73;;;7.30;99.90;;;;;;5030300;28;20061;-43
2022/10/20 07:45:44;;;;;;;18.25;13.43;;;7.40;99.90;;;;;;5032797;28;20095;-43
2022/10/20 07:48:10;;;;;;;21.48;13.80;;;7.50;99.90;;;;;;5034167;28;20041;-44
2022/10/20 07:50:36;;;;;;;19.80;12.95;;;7.70;99.90;;;;;;5033839;28;20040;-43
2022/10/20 07:53:05;;;;;;;17.75;12.82;;;7.50;99.90;;;;;;5030486;28;20128;-43
2022/10/20 07:55:31;;;;;;;18.83;13.18;;;7.60;99.90;;;;;;5030798;28;20980;-43
2022/10/20 07:57:57;;;;;;;20.58;13.68;;;7.10;99.90;;;;;;5030297;28;20087;-45
2022/10/20 08:00:22;;;;;;;17.63;13.40;;;7.70;99.90;;;;;;5038072;28;20037;-44
2022/10/20 08:02:48;;;;;;;18.00;13.70;;;7.90;99.90;;;;;;5032482;28;20490;-43
2022/10/20 08:05:13;;;;;;;17.45;13.88;;;7.80;99.90;;;;;;5038428;28;20453;-44
2022/10/20 08:07:39;;;;;;;17.50;12.85;;;7.90;99.90;;;;;;5032450;28;20040;-44
2022/10/20 08:10:07;;;;;;;23.88;13.82;;;7.90;99.90;;;;;;5030120;28;20083;-42
2022/10/20 08:12:33;;;;;;;21.13;12.95;;;7.90;99.90;;;;;;5048681;28;20041;-42
2022/10/20 08:14:58;;;;;;;19.05;13.68;;;8.10;99.90;;;;;;5034031;28;20039;-41
2022/10/20 08:17:25;;;;;;;18.92;14.10;;;8.10;99.90;;;;;;5033669;28;20069;-43
2022/10/20 08:19:51;;;;;;;20.13;13.82;;;8.20;99.90;;;;;;5039511;28;20041;-45
2022/10/20 08:22:18;;;;;;;18.50;13.75;;;8.20;99.90;;;;;;5038492;28;20037;-43
2022/10/20 08:24:45;;;;;;;21.30;14.00;;;8.30;99.90;;;;;;5036304;28;20052;-44
2022/10/20 08:27:11;;;;;;;20.20;13.68;;;8.30;99.90;;;;;;5038881;28;20021;-45
2022/10/20 08:29:37;;;;;;;17.17;13.43;;;8.40;99.90;;;;;;5037965;28;20040;-44
2022/10/20 08:32:03;;;;;;;16.65;13.80;;;8.60;99.90;;;;;;5038167;28;20045;-44
2022/10/20 08:34:29;;;;;;;15.90;13.05;;;8.50;99.90;;;;;;5038679;28;20045;-45
2022/10/20 08:36:55;;;;;;;16.05;12.82;;;8.60;99.90;;;;;;5038854;28;20033;-44
2022/10/20 08:39:20;;;;;;;17.55;12.88;;;8.70;99.90;;;;;;5036398;28;20576;-42
2022/10/20 08:41:49;;;;;;;17.58;12.60;;;8.80;99.90;;;;;;5039570;28;20776;-44
2022/10/20 08:44:22;;;;;;;16.50;12.45;;;8.30;99.90;;;;;;5038200;28;20045;-45
2022/10/20 08:46:48;;;;;;;19.52;12.82;;;9.00;99.90;;;;;;5039315;28;20040;-44
2022/10/20 08:49:33;;;;;;;15.70;12.60;;;9.00;99.90;;;;;;5040083;28;20377;-45
2022/10/20 08:52:00;;;;;;;16.10;12.52;;;9.10;99.90;;;;;;5043921;28;20490;-43
2022/10/20 08:54:25;;;;;;;14.88;12.52;;;9.10;99.90;;;;;;5048486;28;20068;-45
2022/10/20 08:56:52;;;;;;;17.17;12.57;;;9.10;99.90;;;;;;5048519;28;20075;-44
2022/10/20 08:59:23;;;;;;;16.38;12.52;;;9.10;99.90;;;;;;5049183;28;20045;-44
2022/10/20 09:01:49;;;;;;;16.15;12.15;;;9.20;99.90;;;;;;5049715;28;20086;-43
2022/10/20 09:04:30;;;;;;;15.30;12.73;;;9.30;99.90;;;;;;5050198;28;20353;-43
2022/10/20 09:07:00;;;;;;;17.15;11.75;;;9.30;99.90;;;;;;5047760;28;20077;-43
2022/10/20 09:09:29;;;;;;;15.52;12.30;;;9.40;99.90;;;;;;5047946;28;20063;-43
2022/10/20 09:12:05;;;;;;;16.23;12.27;;;9.40;99.90;;;;;;5048740;28;20047;-46
2022/10/20 09:14:35;;;;;;;17.42;11.75;;;9.50;99.90;;;;;;5050035;28;20098;-42
2022/10/20 09:17:01;;;;;;;14.80;11.82;;;9.60;99.90;;;;;;5049166;28;20511;-45
2022/10/20 09:19:28;;;;;;;17.88;11.63;;;9.70;99.90;;;;;;5049902;28;20025;-47
2022/10/20 09:21:56;;;;;;;15.48;10.70;;;9.80;99.90;;;;;;5049814;28;20037;-44
2022/10/20 09:24:25;;;;;;;14.35;10.85;;;9.90;99.90;;;;;;5049531;28;20654;-42
2022/10/20 09:26:52;;;;;;;15.85;9.73;;;10.00;99.90;;;;;;5048441;28;20041;-44
2022/10/20 09:29:20;;;;;;;14.07;9.75;;;10.10;99.90;;;;;;5048254;28;20091;-43
2022/10/20 09:31:52;;;;;;;15.25;10.00;;;10.30;99.90;;;;;;5049271;28;20418;-44
2022/10/20 09:34:32;;;;;;;13.02;9.85;;;10.30;99.90;;;;;;5048414;28;20528;-43
2022/10/20 09:37:11;;;;;;;12.40;9.45;;;10.50;99.90;;;;;;5040456;28;20037;-44
2022/10/20 09:39:46;;;;;;;16.70;10.38;;;10.60;99.90;;;;;;5038891;28;20045;-45
2022/10/20 09:42:24;;;;;;;15.02;9.93;;;10.70;99.90;;;;;;5040095;28;20119;-44
2022/10/20 09:44:57;;;;;;;14.45;9.85;;;10.90;99.90;;;;;;5038669;28;20041;-47
2022/10/20 09:47:25;;;;;;;15.15;9.68;;;11.00;99.90;;;;;;5041382;28;20088;-45
2022/10/20 09:49:59;;;;;;;12.13;10.52;;;11.10;99.90;;;;;;5040378;28;20043;-43
2022/10/20 09:52:30;;;;;;;14.07;10.18;;;11.20;99.90;;;;;;5045759;28;20076;-46
2022/10/20 09:55:02;;;;;;;13.23;9.50;;;11.20;99.90;;;;;;5044144;28;20126;-47
2022/10/20 09:57:29;;;;;;;13.15;9.65;;;11.40;99.90;;;;;;5049005;28;20068;-44
2022/10/20 09:59:56;;;;;;;13.98;9.75;;;11.50;99.90;;;;;;5041036;28;20045;-47
2022/10/20 10:02:22;;;;;;;11.23;9.75;;;11.50;99.90;;;;;;5046296;28;20498;-44
2022/10/20 10:04:52;;;;;;;14.63;9.90;;;11.60;99.90;;;;;;5047694;28;20032;-45
2022/10/20 10:07:26;;;;;;;12.48;9.43;;;11.70;99.90;;;;;;5041710;28;20098;-44
2022/10/20 10:10:05;;;;;;;12.98;9.77;;;11.80;99.90;;;;;;5044307;28;20141;-45
2022/10/20 10:12:31;;;;;;;12.50;9.82;;;11.80;99.90;;;;;;5045395;28;20076;-45
2022/10/20 10:15:07;;;;;;;11.43;8.65;;;11.90;99.90;;;;;;5044990;28;20048;-46
2022/10/20 10:17:32;;;;;;;13.48;9.75;;;12.00;99.90;;;;;;5045319;28;20073;-46
2022/10/20 10:19:59;;;;;;;12.77;9.70;;;12.20;99.90;;;;;;5038529;28;20080;-46
2022/10/20 10:22:26;;;;;;;13.63;9.60;;;12.40;99.90;;;;;;5047264;28;20044;-43
2022/10/20 10:24:54;;;;;;;12.48;10.30;;;12.30;99.90;;;;;;5049507;28;20472;-43
2022/10/20 10:27:29;;;;;;;12.70;10.40;;;12.30;99.90;;;;;;5049890;28;20041;-45
2022/10/20 10:30:15;;;;;;;12.38;9.48;;;12.40;99.90;;;;;;5045833;28;20761;-44
2022/10/20 10:32:46;;;;;;;10.88;8.70;;;12.40;99.90;;;;;;5043390;28;20073;-44
2022/10/20 10:35:39;;;;;;;10.52;8.88;;;12.40;99.90;;;;;;5041413;28;20122;-46
2022/10/20 10:38:08;;;;;;;11.65;10.00;;;12.30;99.90;;;;;;5044481;28;20051;-46
2022/10/20 10:40:36;;;;;;;13.02;9.68;;;12.30;99.90;;;;;;5047618;28;20037;-45
2022/10/20 10:43:28;;;;;;;12.98;10.05;;;12.30;99.90;;;;;;5047738;28;20084;-45
2022/10/20 10:46:02;;;;;;;13.80;9.57;;;12.20;99.90;;;;;;5044820;28;20033;-46
2022/10/20 10:48:59;;;;;;;12.90;9.75;;;12.20;99.90;;;;;;5044387;28;20124;-46
2022/10/20 10:51:43;;;;;;;12.35;9.70;;;12.20;99.90;;;;;;5047188;28;20037;-44
2022/10/20 10:54:46;;;;;;;13.07;10.30;;;12.20;99.90;;;;;;5047228;28;20507;-45
2022/10/20 10:57:42;;;;;;;12.63;9.98;;;12.20;99.90;;;;;;5042829;28;20079;-46
2022/10/20 11:00:19;;;;;;;12.55;9.73;;;12.20;99.90;;;;;;5043351;28;20045;-45
2022/10/20 11:02:53;;;;;;;15.75;9.77;;;12.10;99.90;;;;;;5046411;28;20033;-48
2022/10/20 11:05:28;;;;;;;13.00;10.25;;;12.10;99.90;;;;;;5047803;28;20080;-44
2022/10/20 11:07:56;;;;;;;13.70;10.43;;;12.10;99.90;;;;;;5045577;28;20064;-47
2022/10/20 11:11:00;;;;;;;14.00;9.52;;;12.10;99.90;;;;;;5043988;28;20059;-44
2022/10/20 11:13:47;;;;;;;14.25;10.55;;;12.10;99.90;;;;;;5032443;28;20045;-44
2022/10/20 11:16:13;;;;;;;15.60;10.65;;;12.30;99.90;;;;;;5040955;28;20591;-45
2022/10/20 11:18:44;;;;;;;13.05;10.93;;;12.30;99.90;;;;;;5043588;28;20037;-43
2022/10/20 11:21:19;;;;;;;12.80;10.77;;;12.20;99.90;;;;;;5046972;28;20043;-47
2022/10/20 11:24:04;;;;;;;13.60;10.88;;;12.20;99.90;;;;;;5045109;28;20041;-44
2022/10/20 11:26:45;;;;;;;14.05;10.65;;;12.10;99.90;;;;;;5048009;28;20052;-45
2022/10/20 11:29:30;;;;;;;13.23;11.00;;;12.20;99.90;;;;;;5046603;28;20540;-44
2022/10/20 11:32:02;;;;;;;14.10;11.07;;;12.10;99.90;;;;;;5042806;28;20091;-45
2022/10/20 11:34:54;;;;;;;12.77;11.30;;;12.10;99.90;;;;;;5042722;28;20426;-45
2022/10/20 11:37:24;;;;;;;14.60;10.98;;;12.20;99.90;;;;;;5043339;28;20550;-47
2022/10/20 11:40:09;;;;;;;16.25;10.98;;;12.10;99.90;;;;;;5036797;28;20386;-44
2022/10/20 11:42:52;;;;;;;15.55;12.10;;;12.10;99.90;;;;;;5040180;28;20103;-44
2022/10/20 11:45:30;;;;;;;15.82;11.50;;;12.20;99.90;;;;;;5047540;28;20646;-43
2022/10/20 11:48:10;;;;;;;15.52;11.93;;;12.20;99.90;;;;;;5043423;28;20043;-45
2022/10/20 11:50:36;;;;;;;16.33;11.52;;;12.10;99.90;;;;;;5042924;28;20040;-43
2022/10/20 11:53:27;;;;;;;17.05;12.93;;;12.20;99.90;;;;;;5045106;28;20432;-46
2022/10/20 11:56:20;;;;;;;16.50;12.52;;;12.20;99.90;;;;;;5047896;28;20053;-44
2022/10/20 11:59:05;;;;;;;15.55;11.98;;;12.10;99.90;;;;;;5043478;28;20040;-47
2022/10/20 12:02:23;;;;;;;16.55;13.30;;;12.20;99.90;;;;;;5043412;28;20811;-47
2022/10/20 12:05:20;;;;;;;16.70;11.82;;;12.10;99.90;;;;;;5021271;28;20045;-45
2022/10/20 12:07:52;;;;;;;19.45;13.75;;;12.20;99.90;;;;;;5042849;28;20043;-46
2022/10/20 12:10:30;;;;;;;17.98;16.15;;;12.20;99.90;;;;;;5046466;28;20087;-43
2022/10/20 12:13:19;;;;;;;20.48;14.55;;;12.10;99.90;;;;;;5046656;28;20056;-44
2022/10/20 12:15:49;;;;;;;19.75;14.20;;;12.00;99.90;;;;;;5043002;28;20076;-43
2022/10/20 12:18:24;;;;;;;18.40;14.07;;;12.10;99.90;;;;;;5044359;28;20069;-44
2022/10/20 12:20:58;;;;;;;18.85;14.82;;;12.00;99.90;;;;;;5045354;28;20100;-45
2022/10/20 12:23:42;;;;;;;18.83;14.73;;;12.10;99.90;;;;;;5041376;28;20049;-44
2022/10/20 12:26:38;;;;;;;21.23;15.25;;;12.00;99.90;;;;;;5039654;28;20041;-44
2022/10/20 12:29:31;;;;;;;20.45;15.65;;;12.10;99.90;;;;;;5046731;28;20033;-45
2022/10/20 12:32:25;;;;;;;19.83;15.05;;;11.90;99.90;;;;;;5040451;28;20049;-45
2022/10/20 12:34:56;;;;;;;19.77;16.08;;;12.10;99.90;;;;;;5042857;28;20055;-43
2022/10/20 12:37:31;;;;;;;20.23;16.05;;;11.90;99.90;;;;;;5042578;28;20047;-43
2022/10/20 12:40:06;;;;;;;22.38;16.63;;;11.90;99.90;;;;;;5045633;28;20095;-43
2022/10/20 12:42:36;;;;;;;20.63;18.15;;;12.10;99.90;;;;;;5044653;28;20090;-44
2022/10/20 12:45:04;;;;;;;24.52;16.83;;;12.10;99.90;;;;;;5044879;28;20037;-43
2022/10/20 12:47:33;;;;;;;24.02;18.02;;;11.90;99.90;;;;;;5047527;28;20033;-42
2022/10/20 12:50:06;;;;;;;24.08;17.92;;;12.10;99.90;;;;;;5042886;28;20046;-43
2022/10/20 12:52:37;;;;;;;20.70;18.50;;;12.00;99.90;;;;;;5040948;28;20328;-44
2022/10/20 12:55:05;;;;;;;23.33;17.02;;;11.90;99.90;;;;;;5044467;28;20052;-43
2022/10/20 12:57:34;;;;;;;23.27;19.63;;;11.90;99.90;;;;;;5043738;28;20049;-43
2022/10/20 13:00:00;;;;;;;24.60;17.80;;;12.00;99.90;;;;;;5038909;28;20041;-44